sensor_id;sensor_type;location;lat;lon;timestamp;P1;durP1;ratioP1;P2;durP2;ratioP2
20976;SDS011;10647;51.016;3.720;2023-02-22T00:00:00;192.83;;;30.70;;
20976;SDS011;10647;51.016;3.720;2023-02-22T00:05:02;145.80;;;29.07;;
20976;SDS011;10647;51.016;3.720;2023-02-22T00:07:43;212.87;;;31.90;;
20976;SDS011;10647;51.016;3.720;2023-02-22T00:10:17;164.57;;;29.77;;
20976;SDS011;10647;51.016;3.720;2023-02-22T00:12:51;129.13;;;27.13;;
20976;SDS011;10647;51.016;3.720;2023-02-22T00:15:24;235.87;;;32.00;;
20976;SDS011;10647;51.016;3.720;2023-02-22T00:18:00;189.27;;;29.53;;
20976;SDS011;10647;51.016;3.720;2023-02-22T00:20:31;180.27;;;29.70;;
20976;SDS011;10647;51.016;3.720;2023-02-22T00:25:47;129.63;;;26.43;;
20976;SDS011;10647;51.016;3.720;2023-02-22T00:28:16;200.70;;;29.20;;
20976;SDS011;10647;51.016;3.720;2023-02-22T00:30:44;134.50;;;29.40;;
20976;SDS011;10647;51.016;3.720;2023-02-22T00:33:13;240.93;;;31.90;;
20976;SDS011;10647;51.016;3.720;2023-02-22T00:35:43;181.30;;;30.13;;
20976;SDS011;10647;51.016;3.720;2023-02-22T00:38:11;125.60;;;27.70;;
20976;SDS011;10647;51.016;3.720;2023-02-22T00:40:41;118.57;;;27.67;;
20976;SDS011;10647;51.016;3.720;2023-02-22T00:43:10;121.00;;;26.50;;
20976;SDS011;10647;51.016;3.720;2023-02-22T00:45:39;152.87;;;28.00;;
20976;SDS011;10647;51.016;3.720;2023-02-22T00:48:12;125.07;;;28.07;;
20976;SDS011;10647;51.016;3.720;2023-02-22T00:50:40;161.73;;;28.37;;
20976;SDS011;10647;51.016;3.720;2023-02-22T00:53:09;87.47;;;24.60;;
20976;SDS011;10647;51.016;3.720;2023-02-22T00:55:38;103.73;;;25.90;;
20976;SDS011;10647;51.016;3.720;2023-02-22T00:58:05;129.77;;;26.43;;
20976;SDS011;10647;51.016;3.720;2023-02-22T01:00:35;104.50;;;26.70;;
20976;SDS011;10647;51.016;3.720;2023-02-22T01:03:07;102.17;;;26.07;;
20976;SDS011;10647;51.016;3.720;2023-02-22T01:05:36;109.57;;;25.47;;
20976;SDS011;10647;51.016;3.720;2023-02-22T01:08:04;94.17;;;25.03;;
20976;SDS011;10647;51.016;3.720;2023-02-22T01:10:33;101.53;;;24.63;;
20976;SDS011;10647;51.016;3.720;2023-02-22T01:13:02;91.50;;;22.57;;
20976;SDS011;10647;51.016;3.720;2023-02-22T01:15:31;93.87;;;23.43;;
20976;SDS011;10647;51.016;3.720;2023-02-22T01:18:00;102.77;;;25.60;;
20976;SDS011;10647;51.016;3.720;2023-02-22T01:20:30;90.00;;;24.43;;
20976;SDS011;10647;51.016;3.720;2023-02-22T01:23:00;100.43;;;25.23;;
20976;SDS011;10647;51.016;3.720;2023-02-22T01:25:30;112.30;;;25.43;;
20976;SDS011;10647;51.016;3.720;2023-02-22T01:28:05;94.67;;;25.10;;
20976;SDS011;10647;51.016;3.720;2023-02-22T01:30:35;99.17;;;24.97;;
20976;SDS011;10647;51.016;3.720;2023-02-22T01:33:05;104.63;;;24.10;;
20976;SDS011;10647;51.016;3.720;2023-02-22T01:35:33;108.67;;;25.57;;
20976;SDS011;10647;51.016;3.720;2023-02-22T01:38:05;98.50;;;24.90;;
20976;SDS011;10647;51.016;3.720;2023-02-22T01:40:40;103.07;;;25.73;;
20976;SDS011;10647;51.016;3.720;2023-02-22T01:43:29;105.07;;;25.90;;
20976;SDS011;10647;51.016;3.720;2023-02-22T01:46:01;99.50;;;24.70;;
20976;SDS011;10647;51.016;3.720;2023-02-22T01:51:32;93.00;;;24.30;;
20976;SDS011;10647;51.016;3.720;2023-02-22T01:54:31;91.30;;;23.83;;
20976;SDS011;10647;51.016;3.720;2023-02-22T01:57:22;95.33;;;23.77;;
20976;SDS011;10647;51.016;3.720;2023-02-22T01:59:54;99.83;;;24.27;;
20976;SDS011;10647;51.016;3.720;2023-02-22T02:04:55;89.20;;;24.87;;
20976;SDS011;10647;51.016;3.720;2023-02-22T02:07:27;97.80;;;24.10;;
20976;SDS011;10647;51.016;3.720;2023-02-22T02:12:45;82.87;;;22.00;;
20976;SDS011;10647;51.016;3.720;2023-02-22T02:15:34;84.30;;;24.23;;
20976;SDS011;10647;51.016;3.720;2023-02-22T02:18:04;86.17;;;23.03;;
20976;SDS011;10647;51.016;3.720;2023-02-22T02:27:17;82.17;;;23.60;;
20976;SDS011;10647;51.016;3.720;2023-02-22T02:35:10;84.37;;;22.83;;
20976;SDS011;10647;51.016;3.720;2023-02-22T02:40:14;87.27;;;23.60;;
20976;SDS011;10647;51.016;3.720;2023-02-22T02:42:47;88.43;;;23.33;;
20976;SDS011;10647;51.016;3.720;2023-02-22T02:48:08;93.73;;;22.27;;
20976;SDS011;10647;51.016;3.720;2023-02-22T02:50:58;92.83;;;24.13;;
20976;SDS011;10647;51.016;3.720;2023-02-22T02:53:33;90.70;;;24.23;;
20976;SDS011;10647;51.016;3.720;2023-02-22T02:56:21;88.67;;;24.00;;
20976;SDS011;10647;51.016;3.720;2023-02-22T02:58:49;85.97;;;24.57;;
20976;SDS011;10647;51.016;3.720;2023-02-22T03:07:55;85.70;;;22.60;;
20976;SDS011;10647;51.016;3.720;2023-02-22T03:09:53;97.17;;;24.47;;
20976;SDS011;10647;51.016;3.720;2023-02-22T03:20:59;93.20;;;24.90;;
20976;SDS011;10647;51.016;3.720;2023-02-22T03:26:38;95.23;;;24.50;;
20976;SDS011;10647;51.016;3.720;2023-02-22T03:29:22;91.13;;;23.83;;
20976;SDS011;10647;51.016;3.720;2023-02-22T03:32:00;93.73;;;25.03;;
20976;SDS011;10647;51.016;3.720;2023-02-22T03:34:32;97.03;;;24.73;;
20976;SDS011;10647;51.016;3.720;2023-02-22T03:37:26;88.27;;;23.90;;
20976;SDS011;10647;51.016;3.720;2023-02-22T03:40:01;84.83;;;24.07;;
20976;SDS011;10647;51.016;3.720;2023-02-22T03:42:34;87.53;;;24.17;;
20976;SDS011;10647;51.016;3.720;2023-02-22T03:45:14;94.50;;;24.77;;
20976;SDS011;10647;51.016;3.720;2023-02-22T03:47:47;91.93;;;24.40;;
20976;SDS011;10647;51.016;3.720;2023-02-22T03:53:06;91.27;;;23.80;;
20976;SDS011;10647;51.016;3.720;2023-02-22T03:55:34;85.50;;;24.73;;
20976;SDS011;10647;51.016;3.720;2023-02-22T03:58:05;85.07;;;23.93;;
20976;SDS011;10647;51.016;3.720;2023-02-22T04:00:41;89.43;;;25.13;;
20976;SDS011;10647;51.016;3.720;2023-02-22T04:03:15;86.83;;;23.20;;
20976;SDS011;10647;51.016;3.720;2023-02-22T04:05:48;87.57;;;25.03;;
20976;SDS011;10647;51.016;3.720;2023-02-22T04:08:18;93.57;;;24.20;;
20976;SDS011;10647;51.016;3.720;2023-02-22T04:10:46;86.50;;;25.67;;
20976;SDS011;10647;51.016;3.720;2023-02-22T04:13:17;96.10;;;24.80;;
20976;SDS011;10647;51.016;3.720;2023-02-22T04:15:50;99.13;;;24.73;;
20976;SDS011;10647;51.016;3.720;2023-02-22T04:18:19;94.67;;;25.77;;
20976;SDS011;10647;51.016;3.720;2023-02-22T04:20:46;93.53;;;25.43;;
20976;SDS011;10647;51.016;3.720;2023-02-22T04:23:20;92.73;;;26.07;;
20976;SDS011;10647;51.016;3.720;2023-02-22T04:28:27;92.77;;;23.83;;
20976;SDS011;10647;51.016;3.720;2023-02-22T04:30:55;89.90;;;24.30;;
20976;SDS011;10647;51.016;3.720;2023-02-22T04:33:28;82.03;;;23.97;;
20976;SDS011;10647;51.016;3.720;2023-02-22T04:35:57;89.20;;;25.47;;
20976;SDS011;10647;51.016;3.720;2023-02-22T04:38:30;90.50;;;23.57;;
20976;SDS011;10647;51.016;3.720;2023-02-22T04:41:04;85.07;;;25.13;;
20976;SDS011;10647;51.016;3.720;2023-02-22T04:43:31;93.93;;;26.13;;
20976;SDS011;10647;51.016;3.720;2023-02-22T04:45:59;96.60;;;26.67;;
20976;SDS011;10647;51.016;3.720;2023-02-22T04:48:26;99.90;;;25.47;;
20976;SDS011;10647;51.016;3.720;2023-02-22T04:50:55;90.23;;;25.97;;
20976;SDS011;10647;51.016;3.720;2023-02-22T04:53:23;98.30;;;26.30;;
20976;SDS011;10647;51.016;3.720;2023-02-22T04:55:51;93.40;;;25.77;;
20976;SDS011;10647;51.016;3.720;2023-02-22T04:58:19;106.57;;;26.17;;
20976;SDS011;10647;51.016;3.720;2023-02-22T05:00:50;95.57;;;26.13;;
20976;SDS011;10647;51.016;3.720;2023-02-22T05:03:18;102.30;;;26.37;;
20976;SDS011;10647;51.016;3.720;2023-02-22T05:05:45;93.40;;;24.67;;
20976;SDS011;10647;51.016;3.720;2023-02-22T05:08:14;96.03;;;25.37;;
20976;SDS011;10647;51.016;3.720;2023-02-22T05:10:41;105.03;;;25.57;;
20976;SDS011;10647;51.016;3.720;2023-02-22T05:13:09;109.33;;;25.90;;
20976;SDS011;10647;51.016;3.720;2023-02-22T05:15:37;98.97;;;26.27;;
20976;SDS011;10647;51.016;3.720;2023-02-22T05:18:07;92.70;;;25.60;;
20976;SDS011;10647;51.016;3.720;2023-02-22T05:20:35;103.07;;;26.70;;
20976;SDS011;10647;51.016;3.720;2023-02-22T05:23:03;103.53;;;26.13;;
20976;SDS011;10647;51.016;3.720;2023-02-22T05:25:33;101.77;;;25.87;;
20976;SDS011;10647;51.016;3.720;2023-02-22T05:28:13;87.40;;;25.23;;
20976;SDS011;10647;51.016;3.720;2023-02-22T05:30:42;87.40;;;25.67;;
20976;SDS011;10647;51.016;3.720;2023-02-22T05:33:12;100.00;;;26.60;;
20976;SDS011;10647;51.016;3.720;2023-02-22T05:40:56;96.30;;;26.00;;
20976;SDS011;10647;51.016;3.720;2023-02-22T05:48:44;96.77;;;25.20;;
20976;SDS011;10647;51.016;3.720;2023-02-22T05:51:18;88.33;;;23.97;;
20976;SDS011;10647;51.016;3.720;2023-02-22T05:53:51;89.00;;;24.97;;
20976;SDS011;10647;51.016;3.720;2023-02-22T05:56:21;94.57;;;25.00;;
20976;SDS011;10647;51.016;3.720;2023-02-22T05:58:53;89.37;;;25.67;;
20976;SDS011;10647;51.016;3.720;2023-02-22T06:01:23;86.13;;;25.27;;
20976;SDS011;10647;51.016;3.720;2023-02-22T06:03:58;87.17;;;24.63;;
20976;SDS011;10647;51.016;3.720;2023-02-22T06:06:29;91.80;;;25.67;;
20976;SDS011;10647;51.016;3.720;2023-02-22T06:08:56;94.23;;;25.93;;
20976;SDS011;10647;51.016;3.720;2023-02-22T06:11:25;79.60;;;25.87;;
20976;SDS011;10647;51.016;3.720;2023-02-22T06:13:53;93.83;;;25.13;;
20976;SDS011;10647;51.016;3.720;2023-02-22T06:19:21;88.83;;;24.90;;
20976;SDS011;10647;51.016;3.720;2023-02-22T06:21:53;91.70;;;24.77;;
20976;SDS011;10647;51.016;3.720;2023-02-22T06:24:30;92.37;;;25.30;;
20976;SDS011;10647;51.016;3.720;2023-02-22T06:26:59;84.80;;;24.93;;
20976;SDS011;10647;51.016;3.720;2023-02-22T06:29:43;90.80;;;25.83;;
20976;SDS011;10647;51.016;3.720;2023-02-22T06:32:28;84.80;;;25.07;;
20976;SDS011;10647;51.016;3.720;2023-02-22T06:34:56;84.10;;;25.20;;
20976;SDS011;10647;51.016;3.720;2023-02-22T06:37:26;91.50;;;25.37;;
20976;SDS011;10647;51.016;3.720;2023-02-22T06:42:41;96.57;;;24.73;;
20976;SDS011;10647;51.016;3.720;2023-02-22T06:45:08;90.53;;;25.67;;
20976;SDS011;10647;51.016;3.720;2023-02-22T06:47:38;82.93;;;26.50;;
20976;SDS011;10647;51.016;3.720;2023-02-22T06:50:17;82.83;;;25.43;;
20976;SDS011;10647;51.016;3.720;2023-02-22T06:53:06;85.90;;;25.47;;
20976;SDS011;10647;51.016;3.720;2023-02-22T06:55:34;83.90;;;25.80;;
20976;SDS011;10647;51.016;3.720;2023-02-22T06:58:08;82.37;;;25.47;;
20976;SDS011;10647;51.016;3.720;2023-02-22T07:00:36;75.90;;;23.30;;
20976;SDS011;10647;51.016;3.720;2023-02-22T07:03:04;79.67;;;24.40;;
20976;SDS011;10647;51.016;3.720;2023-02-22T07:05:35;76.80;;;24.20;;
20976;SDS011;10647;51.016;3.720;2023-02-22T07:08:03;78.30;;;24.03;;
20976;SDS011;10647;51.016;3.720;2023-02-22T07:10:46;82.17;;;25.60;;
20976;SDS011;10647;51.016;3.720;2023-02-22T07:13:24;74.17;;;24.73;;
20976;SDS011;10647;51.016;3.720;2023-02-22T07:15:57;73.87;;;25.73;;
20976;SDS011;10647;51.016;3.720;2023-02-22T07:18:25;70.00;;;24.13;;
20976;SDS011;10647;51.016;3.720;2023-02-22T07:20:52;66.17;;;23.57;;
20976;SDS011;10647;51.016;3.720;2023-02-22T07:23:21;70.63;;;24.10;;
20976;SDS011;10647;51.016;3.720;2023-02-22T07:25:49;66.03;;;24.50;;
20976;SDS011;10647;51.016;3.720;2023-02-22T07:28:17;66.93;;;23.47;;
20976;SDS011;10647;51.016;3.720;2023-02-22T07:30:44;68.83;;;24.37;;
20976;SDS011;10647;51.016;3.720;2023-02-22T07:33:12;62.63;;;23.80;;
20976;SDS011;10647;51.016;3.720;2023-02-22T07:35:45;60.00;;;23.60;;
20976;SDS011;10647;51.016;3.720;2023-02-22T07:38:19;63.90;;;23.27;;
20976;SDS011;10647;51.016;3.720;2023-02-22T07:40:47;64.20;;;24.00;;
20976;SDS011;10647;51.016;3.720;2023-02-22T07:43:21;57.83;;;22.93;;
20976;SDS011;10647;51.016;3.720;2023-02-22T07:45:54;53.47;;;21.60;;
20976;SDS011;10647;51.016;3.720;2023-02-22T07:51:22;57.60;;;22.40;;
20976;SDS011;10647;51.016;3.720;2023-02-22T07:53:50;57.20;;;22.67;;
20976;SDS011;10647;51.016;3.720;2023-02-22T07:56:17;54.20;;;22.57;;
20976;SDS011;10647;51.016;3.720;2023-02-22T07:58:45;52.97;;;21.73;;
20976;SDS011;10647;51.016;3.720;2023-02-22T08:01:12;54.67;;;21.90;;
20976;SDS011;10647;51.016;3.720;2023-02-22T08:03:40;52.20;;;23.23;;
20976;SDS011;10647;51.016;3.720;2023-02-22T08:06:08;69.03;;;27.33;;
20976;SDS011;10647;51.016;3.720;2023-02-22T08:11:43;59.57;;;26.27;;
20976;SDS011;10647;51.016;3.720;2023-02-22T08:21:33;47.37;;;22.63;;
20976;SDS011;10647;51.016;3.720;2023-02-22T08:24:06;47.90;;;21.13;;
20976;SDS011;10647;51.016;3.720;2023-02-22T08:26:35;43.50;;;20.87;;
20976;SDS011;10647;51.016;3.720;2023-02-22T08:29:10;48.23;;;21.40;;
20976;SDS011;10647;51.016;3.720;2023-02-22T08:31:48;40.30;;;20.37;;
20976;SDS011;10647;51.016;3.720;2023-02-22T08:34:25;40.43;;;19.80;;
20976;SDS011;10647;51.016;3.720;2023-02-22T08:36:58;39.80;;;19.37;;
20976;SDS011;10647;51.016;3.720;2023-02-22T08:39:35;39.37;;;19.60;;
20976;SDS011;10647;51.016;3.720;2023-02-22T08:42:04;37.07;;;18.63;;
20976;SDS011;10647;51.016;3.720;2023-02-22T08:44:36;37.07;;;19.27;;
20976;SDS011;10647;51.016;3.720;2023-02-22T08:47:07;36.67;;;19.30;;
20976;SDS011;10647;51.016;3.720;2023-02-22T08:49:35;31.93;;;17.10;;
20976;SDS011;10647;51.016;3.720;2023-02-22T08:52:04;33.77;;;17.63;;
20976;SDS011;10647;51.016;3.720;2023-02-22T08:54:38;27.63;;;16.57;;
20976;SDS011;10647;51.016;3.720;2023-02-22T08:57:11;32.53;;;17.47;;
20976;SDS011;10647;51.016;3.720;2023-02-22T08:59:39;27.90;;;17.43;;
20976;SDS011;10647;51.016;3.720;2023-02-22T09:02:17;30.63;;;17.30;;
20976;SDS011;10647;51.016;3.720;2023-02-22T09:04:46;35.10;;;17.97;;
20976;SDS011;10647;51.016;3.720;2023-02-22T09:07:39;32.07;;;17.90;;
20976;SDS011;10647;51.016;3.720;2023-02-22T09:10:17;29.03;;;16.90;;
20976;SDS011;10647;51.016;3.720;2023-02-22T09:12:48;33.17;;;17.90;;
20976;SDS011;10647;51.016;3.720;2023-02-22T09:15:20;34.10;;;17.83;;
20976;SDS011;10647;51.016;3.720;2023-02-22T09:17:49;29.60;;;17.67;;
20976;SDS011;10647;51.016;3.720;2023-02-22T09:20:18;28.73;;;17.23;;
20976;SDS011;10647;51.016;3.720;2023-02-22T09:22:47;26.57;;;17.47;;
20976;SDS011;10647;51.016;3.720;2023-02-22T09:30:41;25.60;;;16.43;;
20976;SDS011;10647;51.016;3.720;2023-02-22T09:35:55;33.40;;;17.43;;
20976;SDS011;10647;51.016;3.720;2023-02-22T09:38:39;32.73;;;17.43;;
20976;SDS011;10647;51.016;3.720;2023-02-22T09:41:21;31.60;;;18.17;;
20976;SDS011;10647;51.016;3.720;2023-02-22T09:44:43;33.27;;;18.83;;
20976;SDS011;10647;51.016;3.720;2023-02-22T09:46:32;35.10;;;18.80;;
20976;SDS011;10647;51.016;3.720;2023-02-22T09:49:17;31.70;;;19.03;;
20976;SDS011;10647;51.016;3.720;2023-02-22T09:51:56;30.63;;;18.50;;
20976;SDS011;10647;51.016;3.720;2023-02-22T09:54:25;29.27;;;18.37;;
20976;SDS011;10647;51.016;3.720;2023-02-22T09:57:08;30.50;;;19.17;;
20976;SDS011;10647;51.016;3.720;2023-02-22T09:59:50;32.33;;;19.20;;
20976;SDS011;10647;51.016;3.720;2023-02-22T10:02:20;31.83;;;19.33;;
20976;SDS011;10647;51.016;3.720;2023-02-22T10:07:39;27.63;;;18.07;;
20976;SDS011;10647;51.016;3.720;2023-02-22T10:10:14;29.73;;;20.07;;
20976;SDS011;10647;51.016;3.720;2023-02-22T10:19:06;31.90;;;19.10;;
20976;SDS011;10647;51.016;3.720;2023-02-22T10:29:49;35.53;;;21.67;;
20976;SDS011;10647;51.016;3.720;2023-02-22T10:32:42;34.50;;;20.67;;
20976;SDS011;10647;51.016;3.720;2023-02-22T10:35:32;32.97;;;21.17;;
20976;SDS011;10647;51.016;3.720;2023-02-22T10:38:10;33.53;;;20.73;;
20976;SDS011;10647;51.016;3.720;2023-02-22T10:41:14;38.07;;;23.00;;
20976;SDS011;10647;51.016;3.720;2023-02-22T10:43:52;37.23;;;23.03;;
20976;SDS011;10647;51.016;3.720;2023-02-22T10:46:22;35.87;;;23.43;;
20976;SDS011;10647;51.016;3.720;2023-02-22T10:51:25;36.73;;;23.00;;
20976;SDS011;10647;51.016;3.720;2023-02-22T10:59:40;37.47;;;23.77;;
20976;SDS011;10647;51.016;3.720;2023-02-22T11:02:19;36.87;;;23.13;;
20976;SDS011;10647;51.016;3.720;2023-02-22T11:04:51;37.53;;;24.23;;
20976;SDS011;10647;51.016;3.720;2023-02-22T11:07:28;39.23;;;24.93;;
20976;SDS011;10647;51.016;3.720;2023-02-22T11:10:00;35.80;;;23.53;;
20976;SDS011;10647;51.016;3.720;2023-02-22T11:12:44;36.10;;;24.90;;
20976;SDS011;10647;51.016;3.720;2023-02-22T11:17:51;38.20;;;25.27;;
20976;SDS011;10647;51.016;3.720;2023-02-22T11:20:22;39.17;;;25.97;;
20976;SDS011;10647;51.016;3.720;2023-02-22T11:22:56;41.43;;;25.97;;
20976;SDS011;10647;51.016;3.720;2023-02-22T11:25:27;38.50;;;25.17;;
20976;SDS011;10647;51.016;3.720;2023-02-22T11:28:19;38.90;;;26.10;;
20976;SDS011;10647;51.016;3.720;2023-02-22T11:30:34;37.33;;;26.37;;
20976;SDS011;10647;51.016;3.720;2023-02-22T11:34:03;39.20;;;26.20;;
20976;SDS011;10647;51.016;3.720;2023-02-22T11:35:53;37.77;;;25.90;;
20976;SDS011;10647;51.016;3.720;2023-02-22T11:38:24;43.07;;;26.70;;
20976;SDS011;10647;51.016;3.720;2023-02-22T11:43:43;38.60;;;25.80;;
20976;SDS011;10647;51.016;3.720;2023-02-22T11:46:13;41.07;;;27.03;;
20976;SDS011;10647;51.016;3.720;2023-02-22T11:57:25;48.13;;;29.83;;
20976;SDS011;10647;51.016;3.720;2023-02-22T12:00:13;47.27;;;30.73;;
20976;SDS011;10647;51.016;3.720;2023-02-22T12:11:43;54.43;;;34.13;;
20976;SDS011;10647;51.016;3.720;2023-02-22T12:20:21;57.90;;;34.27;;
20976;SDS011;10647;51.016;3.720;2023-02-22T12:22:58;59.37;;;35.67;;
20976;SDS011;10647;51.016;3.720;2023-02-22T12:29:08;63.43;;;36.37;;
20976;SDS011;10647;51.016;3.720;2023-02-22T12:37:17;70.77;;;39.30;;
20976;SDS011;10647;51.016;3.720;2023-02-22T12:40:02;66.53;;;39.73;;
20976;SDS011;10647;51.016;3.720;2023-02-22T12:45:31;68.90;;;40.10;;
20976;SDS011;10647;51.016;3.720;2023-02-22T12:48:34;70.67;;;37.13;;
20976;SDS011;10647;51.016;3.720;2023-02-22T12:51:42;65.77;;;36.27;;
20976;SDS011;10647;51.016;3.720;2023-02-22T12:57:35;72.60;;;38.40;;
20976;SDS011;10647;51.016;3.720;2023-02-22T13:02:56;78.27;;;41.83;;
20976;SDS011;10647;51.016;3.720;2023-02-22T13:05:29;83.03;;;42.73;;
20976;SDS011;10647;51.016;3.720;2023-02-22T13:08:18;82.13;;;39.70;;
20976;SDS011;10647;51.016;3.720;2023-02-22T13:20:12;87.37;;;41.53;;
20976;SDS011;10647;51.016;3.720;2023-02-22T13:25:47;89.90;;;43.33;;
20976;SDS011;10647;51.016;3.720;2023-02-22T13:31:24;97.20;;;43.10;;
20976;SDS011;10647;51.016;3.720;2023-02-22T13:37:00;102.37;;;44.07;;
20976;SDS011;10647;51.016;3.720;2023-02-22T13:48:05;99.03;;;44.70;;
20976;SDS011;10647;51.016;3.720;2023-02-22T13:52:57;110.33;;;46.20;;
20976;SDS011;10647;51.016;3.720;2023-02-22T13:55:33;121.27;;;49.07;;
20976;SDS011;10647;51.016;3.720;2023-02-22T13:58:04;116.90;;;50.63;;
20976;SDS011;10647;51.016;3.720;2023-02-22T14:00:40;119.90;;;50.50;;
20976;SDS011;10647;51.016;3.720;2023-02-22T14:08:40;134.17;;;53.63;;
20976;SDS011;10647;51.016;3.720;2023-02-22T14:14:09;135.90;;;51.97;;
20976;SDS011;10647;51.016;3.720;2023-02-22T14:16:39;135.93;;;53.93;;
20976;SDS011;10647;51.016;3.720;2023-02-22T14:21:53;138.27;;;54.47;;
20976;SDS011;10647;51.016;3.720;2023-02-22T14:24:40;146.47;;;53.50;;
20976;SDS011;10647;51.016;3.720;2023-02-22T14:27:10;147.90;;;57.13;;
20976;SDS011;10647;51.016;3.720;2023-02-22T14:29:53;133.33;;;52.87;;
20976;SDS011;10647;51.016;3.720;2023-02-22T14:32:33;140.43;;;53.43;;
20976;SDS011;10647;51.016;3.720;2023-02-22T14:35:15;142.13;;;53.70;;
20976;SDS011;10647;51.016;3.720;2023-02-22T14:37:47;146.47;;;55.93;;
20976;SDS011;10647;51.016;3.720;2023-02-22T14:40:23;134.03;;;54.37;;
20976;SDS011;10647;51.016;3.720;2023-02-22T14:45:39;140.97;;;55.67;;
20976;SDS011;10647;51.016;3.720;2023-02-22T14:48:26;146.23;;;53.47;;
20976;SDS011;10647;51.016;3.720;2023-02-22T14:51:19;137.50;;;53.20;;
20976;SDS011;10647;51.016;3.720;2023-02-22T14:53:52;131.53;;;51.70;;
20976;SDS011;10647;51.016;3.720;2023-02-22T14:59:12;133.73;;;52.93;;
20976;SDS011;10647;51.016;3.720;2023-02-22T15:01:48;129.93;;;50.73;;
20976;SDS011;10647;51.016;3.720;2023-02-22T15:04:27;127.43;;;51.47;;
20976;SDS011;10647;51.016;3.720;2023-02-22T15:07:31;130.73;;;50.07;;
20976;SDS011;10647;51.016;3.720;2023-02-22T15:13:12;118.20;;;48.73;;
20976;SDS011;10647;51.016;3.720;2023-02-22T15:15:39;125.93;;;48.73;;
20976;SDS011;10647;51.016;3.720;2023-02-22T15:18:27;122.10;;;48.30;;
20976;SDS011;10647;51.016;3.720;2023-02-22T15:21:29;117.77;;;49.53;;
20976;SDS011;10647;51.016;3.720;2023-02-22T15:23:59;112.73;;;47.73;;
20976;SDS011;10647;51.016;3.720;2023-02-22T15:26:33;115.97;;;47.53;;
20976;SDS011;10647;51.016;3.720;2023-02-22T15:29:21;110.80;;;46.43;;
20976;SDS011;10647;51.016;3.720;2023-02-22T15:31:51;107.23;;;45.97;;
20976;SDS011;10647;51.016;3.720;2023-02-22T15:34:23;114.30;;;45.57;;
20976;SDS011;10647;51.016;3.720;2023-02-22T15:36:52;106.33;;;45.40;;
20976;SDS011;10647;51.016;3.720;2023-02-22T15:39:23;101.27;;;42.90;;
20976;SDS011;10647;51.016;3.720;2023-02-22T15:42:13;109.43;;;44.90;;
20976;SDS011;10647;51.016;3.720;2023-02-22T15:44:46;99.70;;;39.20;;
20976;SDS011;10647;51.016;3.720;2023-02-22T15:47:21;96.90;;;39.57;;
20976;SDS011;10647;51.016;3.720;2023-02-22T15:53:04;89.03;;;35.07;;
20976;SDS011;10647;51.016;3.720;2023-02-22T15:55:34;83.60;;;33.87;;
20976;SDS011;10647;51.016;3.720;2023-02-22T16:09:11;74.40;;;29.90;;
20976;SDS011;10647;51.016;3.720;2023-02-22T16:11:35;71.60;;;29.53;;
20976;SDS011;10647;51.016;3.720;2023-02-22T16:14:40;67.50;;;29.60;;
20976;SDS011;10647;51.016;3.720;2023-02-22T16:17:10;73.57;;;29.70;;
20976;SDS011;10647;51.016;3.720;2023-02-22T16:19:40;64.07;;;28.50;;
20976;SDS011;10647;51.016;3.720;2023-02-22T16:22:30;68.23;;;29.23;;
20976;SDS011;10647;51.016;3.720;2023-02-22T16:27:58;63.10;;;26.97;;
20976;SDS011;10647;51.016;3.720;2023-02-22T16:33:19;63.07;;;27.70;;
20976;SDS011;10647;51.016;3.720;2023-02-22T16:35:47;62.23;;;27.50;;
20976;SDS011;10647;51.016;3.720;2023-02-22T16:38:23;63.67;;;28.37;;
20976;SDS011;10647;51.016;3.720;2023-02-22T16:40:53;69.07;;;29.53;;
20976;SDS011;10647;51.016;3.720;2023-02-22T16:43:28;66.30;;;28.63;;
20976;SDS011;10647;51.016;3.720;2023-02-22T16:45:55;59.03;;;27.43;;
20976;SDS011;10647;51.016;3.720;2023-02-22T16:48:30;66.93;;;29.23;;
20976;SDS011;10647;51.016;3.720;2023-02-22T16:51:05;69.73;;;29.10;;
20976;SDS011;10647;51.016;3.720;2023-02-22T16:53:39;70.50;;;29.87;;
20976;SDS011;10647;51.016;3.720;2023-02-22T16:56:07;63.30;;;28.10;;
20976;SDS011;10647;51.016;3.720;2023-02-22T16:58:38;66.77;;;29.87;;
20976;SDS011;10647;51.016;3.720;2023-02-22T17:01:06;67.30;;;31.53;;
20976;SDS011;10647;51.016;3.720;2023-02-22T17:03:36;68.20;;;29.73;;
20976;SDS011;10647;51.016;3.720;2023-02-22T17:06:03;72.33;;;31.50;;
20976;SDS011;10647;51.016;3.720;2023-02-22T17:11:18;66.27;;;29.27;;
20976;SDS011;10647;51.016;3.720;2023-02-22T17:13:47;69.77;;;30.33;;
20976;SDS011;10647;51.016;3.720;2023-02-22T17:16:18;68.70;;;29.30;;
20976;SDS011;10647;51.016;3.720;2023-02-22T17:18:46;66.07;;;29.47;;
20976;SDS011;10647;51.016;3.720;2023-02-22T17:21:15;67.93;;;29.63;;
20976;SDS011;10647;51.016;3.720;2023-02-22T17:23:43;67.67;;;29.70;;
20976;SDS011;10647;51.016;3.720;2023-02-22T17:26:10;64.47;;;28.77;;
20976;SDS011;10647;51.016;3.720;2023-02-22T17:28:39;66.20;;;29.77;;
20976;SDS011;10647;51.016;3.720;2023-02-22T17:31:15;77.80;;;30.90;;
20976;SDS011;10647;51.016;3.720;2023-02-22T17:33:43;72.23;;;31.10;;
20976;SDS011;10647;51.016;3.720;2023-02-22T17:36:12;75.40;;;31.50;;
20976;SDS011;10647;51.016;3.720;2023-02-22T17:38:39;64.53;;;30.00;;
20976;SDS011;10647;51.016;3.720;2023-02-22T17:41:07;68.97;;;31.30;;
20976;SDS011;10647;51.016;3.720;2023-02-22T17:43:35;70.30;;;30.87;;
20976;SDS011;10647;51.016;3.720;2023-02-22T17:46:06;76.30;;;32.47;;
20976;SDS011;10647;51.016;3.720;2023-02-22T17:48:40;78.80;;;31.63;;
20976;SDS011;10647;51.016;3.720;2023-02-22T17:51:09;75.10;;;35.03;;
20976;SDS011;10647;51.016;3.720;2023-02-22T17:56:27;74.83;;;32.77;;
20976;SDS011;10647;51.016;3.720;2023-02-22T17:58:55;73.40;;;32.40;;
20976;SDS011;10647;51.016;3.720;2023-02-22T18:01:26;79.50;;;33.60;;
20976;SDS011;10647;51.016;3.720;2023-02-22T18:04:13;84.97;;;35.10;;
20976;SDS011;10647;51.016;3.720;2023-02-22T18:06:43;80.77;;;33.67;;
20976;SDS011;10647;51.016;3.720;2023-02-22T18:11:42;83.23;;;33.27;;
20976;SDS011;10647;51.016;3.720;2023-02-22T18:14:10;82.80;;;34.77;;
20976;SDS011;10647;51.016;3.720;2023-02-22T18:16:46;85.43;;;35.87;;
20976;SDS011;10647;51.016;3.720;2023-02-22T18:19:14;81.97;;;35.23;;
20976;SDS011;10647;51.016;3.720;2023-02-22T18:21:44;82.80;;;36.03;;
20976;SDS011;10647;51.016;3.720;2023-02-22T18:24:12;89.03;;;35.57;;
20976;SDS011;10647;51.016;3.720;2023-02-22T18:26:40;91.63;;;37.07;;
20976;SDS011;10647;51.016;3.720;2023-02-22T18:29:07;88.90;;;36.73;;
20976;SDS011;10647;51.016;3.720;2023-02-22T18:31:36;91.90;;;37.70;;
20976;SDS011;10647;51.016;3.720;2023-02-22T18:34:04;88.23;;;36.17;;
20976;SDS011;10647;51.016;3.720;2023-02-22T18:36:32;92.67;;;36.47;;
20976;SDS011;10647;51.016;3.720;2023-02-22T18:38:59;87.10;;;36.87;;
20976;SDS011;10647;51.016;3.720;2023-02-22T18:41:27;97.27;;;39.73;;
20976;SDS011;10647;51.016;3.720;2023-02-22T18:43:55;94.57;;;38.33;;
20976;SDS011;10647;51.016;3.720;2023-02-22T18:46:24;99.00;;;39.50;;
20976;SDS011;10647;51.016;3.720;2023-02-22T18:48:55;93.37;;;39.70;;
20976;SDS011;10647;51.016;3.720;2023-02-22T18:51:23;103.90;;;39.20;;
20976;SDS011;10647;51.016;3.720;2023-02-22T18:53:51;96.80;;;40.63;;